createdAt,value
2022-09-02T00:01:38.289Z,16.59
2022-09-02T00:04:12.492Z,16.64
2022-09-02T00:06:40.007Z,16.54
2022-09-02T00:09:09.220Z,16.44
2022-09-02T00:11:37.782Z,16.38
2022-09-02T00:14:08.249Z,16.35
2022-09-02T00:16:35.178Z,16.32
2022-09-02T00:19:04.227Z,16.37
2022-09-02T00:21:34.505Z,16.40
2022-09-02T00:24:05.737Z,16.39
2022-09-02T00:26:32.299Z,16.38
2022-09-02T00:28:58.952Z,16.37
2022-09-02T00:31:27.636Z,16.41
2022-09-02T00:33:55.485Z,16.44
2022-09-02T00:36:22.063Z,16.38
2022-09-02T00:38:48.863Z,16.41
2022-09-02T00:41:15.896Z,16.31
2022-09-02T00:43:52.168Z,16.47
2022-09-02T00:46:21.483Z,16.40
2022-09-02T00:48:58.240Z,16.35
2022-09-02T00:51:26.515Z,16.29
2022-09-02T00:53:53.842Z,16.24
2022-09-02T00:56:27.915Z,16.21
2022-09-02T00:58:56.227Z,16.11
2022-09-02T01:01:23.507Z,16.05
2022-09-02T01:03:51.158Z,16.07
2022-09-02T01:06:25.098Z,16.13
2022-09-02T01:09:02.234Z,16.16
2022-09-02T01:11:40.676Z,16.16
2022-09-02T01:14:07.685Z,16.18
2022-09-02T01:16:44.178Z,16.27
2022-09-02T01:19:24.967Z,16.18
2022-09-02T01:21:53.966Z,16.18
2022-09-02T01:24:22.451Z,16.08
2022-09-02T01:26:52.574Z,16.02
2022-09-02T01:29:19.546Z,15.91
2022-09-02T01:31:46.367Z,15.81
2022-09-02T01:34:13.369Z,15.79
2022-09-02T01:36:41.525Z,15.66
2022-09-02T01:39:09.974Z,15.61
2022-09-02T01:41:36.455Z,15.64
2022-09-02T01:44:05.547Z,15.67
2022-09-02T01:46:33.663Z,15.72
2022-09-02T01:49:00.395Z,15.79
2022-09-02T01:51:26.854Z,15.68
2022-09-02T01:53:53.494Z,15.68
2022-09-02T01:56:20.067Z,15.64
2022-09-02T01:58:46.533Z,15.49
2022-09-02T02:01:13.299Z,15.44
2022-09-02T02:03:41.543Z,15.46
2022-09-02T02:06:16.325Z,15.42
2022-09-02T02:08:43.577Z,15.41
2022-09-02T02:11:10.507Z,15.53
2022-09-02T02:13:37.654Z,15.47
2022-09-02T02:16:05.697Z,15.47
2022-09-02T02:18:32.257Z,15.43
2022-09-02T02:20:58.782Z,15.46
2022-09-02T02:23:25.796Z,15.41
2022-09-02T02:25:52.742Z,15.30
2022-09-02T02:28:25.636Z,15.28
2022-09-02T02:30:52.438Z,15.31
2022-09-02T02:33:18.938Z,15.30
2022-09-02T02:35:47.085Z,15.21
2022-09-02T02:38:14.402Z,15.17
2022-09-02T02:40:42.141Z,15.14
2022-09-02T02:43:08.663Z,15.10
2022-09-02T02:45:35.222Z,15.03
2022-09-02T02:48:03.001Z,14.98
2022-09-02T02:50:29.628Z,14.98
2022-09-02T02:52:56.571Z,14.99
2022-09-02T02:55:24.793Z,14.89
2022-09-02T02:57:52.133Z,14.80
2022-09-02T03:00:28.556Z,14.77
2022-09-02T03:02:57.272Z,14.75
2022-09-02T03:05:24.697Z,14.82
2022-09-02T03:07:51.455Z,14.80
2022-09-02T03:10:19.485Z,14.74
2022-09-02T03:12:47.551Z,14.70
2022-09-02T03:15:18.362Z,14.79
2022-09-02T03:17:45.897Z,14.73
2022-09-02T03:20:13.477Z,14.80
2022-09-02T03:22:40.149Z,14.80
2022-09-02T03:25:08.538Z,14.82
2022-09-02T03:27:38.133Z,14.81
2022-09-02T03:30:12.395Z,14.75
2022-09-02T03:32:38.870Z,14.70
2022-09-02T03:35:08.415Z,14.79
2022-09-02T03:37:36.285Z,14.77
2022-09-02T03:40:05.600Z,14.73
2022-09-02T03:42:32.273Z,14.72
2022-09-02T03:44:58.750Z,14.66
2022-09-02T03:47:25.552Z,14.56
2022-09-02T03:49:52.401Z,14.54
2022-09-02T03:52:19.040Z,14.62
2022-09-02T03:54:45.774Z,14.58
2022-09-02T03:57:12.649Z,14.54
2022-09-02T03:59:40.565Z,14.51
2022-09-02T04:02:07.937Z,14.48
2022-09-02T04:04:34.981Z,14.43
2022-09-02T04:07:01.561Z,14.41
2022-09-02T04:09:28.163Z,14.33
2022-09-02T04:11:54.844Z,14.30
2022-09-02T04:14:21.460Z,14.24
2022-09-02T04:16:50.420Z,14.14
2022-09-02T04:19:16.890Z,14.10
2022-09-02T04:21:44.515Z,14.07
2022-09-02T04:24:12.649Z,14.03
2022-09-02T04:26:45.098Z,14.04
2022-09-02T04:29:12.624Z,13.97
2022-09-02T04:31:39.154Z,13.94
2022-09-02T04:34:06.878Z,13.91
2022-09-02T04:36:33.559Z,13.85
2022-09-02T04:39:00.391Z,13.85
2022-09-02T04:41:28.960Z,13.86
2022-09-02T04:43:57.441Z,13.82
2022-09-02T04:46:34.146Z,13.84
2022-09-02T04:49:02.382Z,13.89
2022-09-02T04:51:28.981Z,13.95
2022-09-02T04:53:56.263Z,14.01
2022-09-02T04:56:26.531Z,14.07
2022-09-02T04:58:53.875Z,14.14
2022-09-02T05:01:26.319Z,14.14
2022-09-02T05:03:54.018Z,14.23
2022-09-02T05:06:26.905Z,14.27
2022-09-02T05:08:59.202Z,14.27
2022-09-02T05:11:28.381Z,14.37
2022-09-02T05:13:58.503Z,14.57
2022-09-02T05:16:31.426Z,14.62
2022-09-02T05:18:58.193Z,14.62
2022-09-02T05:21:24.798Z,14.62
2022-09-02T05:23:54.431Z,14.65
2022-09-02T05:26:22.051Z,14.66
2022-09-02T05:28:49.167Z,14.68
2022-09-02T05:31:18.119Z,14.73
2022-09-02T05:33:45.688Z,14.80
2022-09-02T05:36:18.686Z,14.92
2022-09-02T05:38:46.262Z,14.99
2022-09-02T05:41:18.160Z,15.14
2022-09-02T05:43:45.669Z,15.27
2022-09-02T05:46:17.570Z,15.41
2022-09-02T05:49:04.403Z,15.53
2022-09-02T05:51:32.799Z,15.75
2022-09-02T05:54:01.288Z,15.89
2022-09-02T05:56:28.096Z,16.11
2022-09-02T05:58:58.895Z,16.18
2022-09-02T06:01:27.373Z,16.19
2022-09-02T06:03:54.200Z,16.20
2022-09-02T06:06:22.910Z,16.20
2022-09-02T06:08:50.464Z,16.18
2022-09-02T06:11:18.126Z,16.16
2022-09-02T06:13:46.513Z,16.24
2022-09-02T06:16:15.864Z,16.22
2022-09-02T06:18:43.622Z,16.20
2022-09-02T06:21:10.491Z,16.17
2022-09-02T06:23:39.069Z,16.15
2022-09-02T06:26:07.990Z,16.07
2022-09-02T06:28:35.394Z,15.98
2022-09-02T06:31:13.230Z,15.98
2022-09-02T06:33:40.026Z,15.98
2022-09-02T06:36:08.893Z,16.00
2022-09-02T06:38:45.622Z,16.06
2022-09-02T06:41:14.742Z,16.15
2022-09-02T06:43:42.667Z,16.38
2022-09-02T06:46:18.714Z,16.52
2022-09-02T06:48:45.731Z,16.69
2022-09-02T06:51:24.700Z,16.85
2022-09-02T06:53:51.337Z,16.96
2022-09-02T06:56:18.619Z,17.06
2022-09-02T06:58:45.337Z,17.14
2022-09-02T07:01:21.698Z,17.20
2022-09-02T07:04:06.848Z,17.17
2022-09-02T07:06:37.860Z,17.15
2022-09-02T07:09:06.921Z,17.17
2022-09-02T07:11:34.103Z,17.24
2022-09-02T07:14:01.759Z,17.25
2022-09-02T07:16:30.697Z,17.30
2022-09-02T07:18:57.963Z,17.33
2022-09-02T07:21:24.462Z,17.44
2022-09-02T07:23:51.187Z,17.56
2022-09-02T07:26:18.041Z,17.54
2022-09-02T07:28:46.128Z,17.57
2022-09-02T07:31:15.851Z,17.70
2022-09-02T07:33:44.870Z,17.73
2022-09-02T07:36:16.688Z,17.84
2022-09-02T07:38:43.559Z,17.92
2022-09-02T07:41:10.759Z,17.98
2022-09-02T07:43:41.043Z,18.09
2022-09-02T07:46:07.726Z,18.15
2022-09-02T07:48:35.133Z,18.22
2022-09-02T07:51:01.829Z,18.36
2022-09-02T07:53:29.000Z,18.37
2022-09-02T07:55:55.864Z,18.51
2022-09-02T07:58:22.525Z,18.50
2022-09-02T08:00:50.367Z,18.57
2022-09-02T08:03:17.620Z,18.66
2022-09-02T08:05:47.530Z,18.73
2022-09-02T08:08:15.783Z,18.77
2022-09-02T08:10:42.629Z,18.85
2022-09-02T08:13:10.481Z,18.95
2022-09-02T08:15:37.360Z,19.05
2022-09-02T08:18:04.878Z,19.15
2022-09-02T08:20:31.473Z,19.26
2022-09-02T08:23:10.681Z,19.34
2022-09-02T08:25:39.481Z,19.37
2022-09-02T08:28:06.237Z,19.51
2022-09-02T08:30:33.342Z,19.62
2022-09-02T08:33:00.481Z,19.67
2022-09-02T08:35:27.222Z,19.75
2022-09-02T08:37:53.807Z,19.80
2022-09-02T08:40:23.272Z,19.93
2022-09-02T08:42:53.908Z,19.97
2022-09-02T08:45:25.944Z,20.09
2022-09-02T08:48:32.988Z,20.24
2022-09-02T08:51:08.741Z,20.29
2022-09-02T08:53:52.449Z,20.37
2022-09-02T08:56:19.315Z,20.43
2022-09-02T08:58:56.555Z,20.57
2022-09-02T09:01:50.850Z,20.65
2022-09-02T09:04:44.464Z,20.68
2022-09-02T09:10:25.613Z,20.69
2022-09-02T09:13:23.264Z,20.90
2022-09-02T09:16:15.487Z,21.06
2022-09-02T09:18:54.284Z,21.22
2022-09-02T09:21:21.172Z,21.38
2022-09-02T09:23:48.970Z,21.49
2022-09-02T09:26:27.593Z,21.57
2022-09-02T09:28:55.989Z,21.66
2022-09-02T09:31:29.639Z,21.75
2022-09-02T09:34:05.105Z,21.80
2022-09-02T09:36:58.670Z,21.96
2022-09-02T09:39:32.388Z,22.01
2022-09-02T09:42:03.180Z,22.08
2022-09-02T09:44:37.981Z,22.13
2022-09-02T09:47:19.560Z,22.32
2022-09-02T09:49:48.187Z,22.36
2022-09-02T09:52:29.731Z,22.43
2022-09-02T09:55:26.719Z,22.59
2022-09-02T09:57:54.638Z,22.72
2022-09-02T10:00:34.581Z,22.81
2022-09-02T10:03:05.380Z,22.94
2022-09-02T10:05:36.863Z,23.21
2022-09-02T10:08:22.899Z,23.28
2022-09-02T10:10:59.352Z,23.16
2022-09-02T10:13:30.608Z,23.21
2022-09-02T10:16:24.844Z,23.37
2022-09-02T10:18:56.269Z,23.46
2022-09-02T10:21:49.328Z,23.53
2022-09-02T10:24:24.850Z,23.42
2022-09-02T10:26:57.428Z,23.51
2022-09-02T10:29:39.538Z,23.56
2022-09-02T10:32:19.778Z,23.73
2022-09-02T10:35:08.511Z,23.70
2022-09-02T10:38:06.350Z,23.82
2022-09-02T10:40:45.551Z,23.89
2022-09-02T10:43:20.479Z,23.89
2022-09-02T10:45:48.034Z,23.93
2022-09-02T10:48:36.299Z,24.02
2022-09-02T10:51:24.729Z,24.14
2022-09-02T10:54:16.766Z,24.09
2022-09-02T10:57:30.062Z,24.33
2022-09-02T10:59:59.953Z,24.40
2022-09-02T11:02:55.628Z,24.52
2022-09-02T11:05:29.902Z,24.65
2022-09-02T11:08:12.880Z,24.80
2022-09-02T11:10:56.551Z,24.96
2022-09-02T11:13:30.923Z,25.17
2022-09-02T11:16:15.123Z,25.29
2022-09-02T11:19:10.967Z,25.29
2022-09-02T11:21:50.328Z,25.42
2022-09-02T11:24:26.418Z,25.58
2022-09-02T11:27:25.887Z,25.72
2022-09-02T11:30:02.941Z,25.66
2022-09-02T11:32:41.784Z,25.63
2022-09-02T11:35:14.831Z,25.76
2022-09-02T11:37:53.422Z,25.86
2022-09-02T11:40:36.107Z,25.88
2022-09-02T11:43:22.053Z,25.62
2022-09-02T11:45:57.071Z,25.76
2022-09-02T11:48:39.126Z,25.66
2022-09-02T11:51:27.561Z,25.47
2022-09-02T11:53:56.499Z,24.99
2022-09-02T11:56:29.071Z,24.48
2022-09-02T11:58:55.593Z,24.32
2022-09-02T12:01:25.799Z,24.02
2022-09-02T12:04:48.495Z,24.36
2022-09-02T12:07:09.625Z,24.24
2022-09-02T12:09:55.668Z,24.24
2022-09-02T12:12:42.713Z,24.86
2022-09-02T12:15:14.823Z,25.41
2022-09-02T12:17:46.187Z,25.53
2022-09-02T12:20:43.729Z,25.56
2022-09-02T12:23:53.079Z,25.67
2022-09-02T12:26:21.003Z,25.36
2022-09-02T12:28:48.835Z,24.78
2022-09-02T12:31:40.633Z,25.00
2022-09-02T12:34:25.489Z,25.39
2022-09-02T12:36:53.308Z,25.81
2022-09-02T12:39:22.886Z,26.08
2022-09-02T12:42:17.255Z,26.34
2022-09-02T12:45:17.578Z,26.31
2022-09-02T12:48:06.004Z,26.11
2022-09-02T12:50:45.363Z,26.04
2022-09-02T12:53:35.734Z,26.45
2022-09-02T12:56:17.001Z,26.68
2022-09-02T12:59:03.113Z,26.36
2022-09-02T13:02:11.092Z,26.33
2022-09-02T13:05:04.196Z,26.34
2022-09-02T13:07:52.583Z,26.34
2022-09-02T13:10:57.572Z,25.85
2022-09-02T13:14:00.087Z,25.97
2022-09-02T13:16:44.641Z,25.62
2022-09-02T13:19:47.925Z,25.66
2022-09-02T13:22:42.911Z,26.02
2022-09-02T13:25:38.966Z,26.29
2022-09-02T13:28:24.902Z,26.37
2022-09-02T13:30:57.533Z,26.27
2022-09-02T13:33:27.453Z,26.54
2022-09-02T13:35:56.996Z,26.54
2022-09-02T13:38:25.230Z,26.57
2022-09-02T13:40:52.107Z,26.76
2022-09-02T13:43:21.349Z,26.58
2022-09-02T13:45:49.928Z,26.56
2022-09-02T13:48:20.713Z,26.06
2022-09-02T13:50:52.790Z,26.13
2022-09-02T13:53:53.582Z,26.07
2022-09-02T13:56:30.530Z,26.00
2022-09-02T13:58:57.147Z,25.85
2022-09-02T14:01:34.642Z,25.92
2022-09-02T14:04:09.497Z,26.06
2022-09-02T14:06:43.165Z,26.17
2022-09-02T14:09:22.278Z,26.09
2022-09-02T14:11:49.973Z,26.02
2022-09-02T14:14:21.999Z,26.13
2022-09-02T14:16:48.539Z,26.24
2022-09-02T14:19:14.981Z,25.85
2022-09-02T14:21:49.511Z,25.95
2022-09-02T14:24:21.199Z,25.60
2022-09-02T14:26:51.642Z,25.72
2022-09-02T14:29:19.925Z,25.86
2022-09-02T14:31:47.653Z,25.75
2022-09-02T14:34:44.887Z,25.87
2022-09-02T14:37:30.923Z,25.88
2022-09-02T14:40:12.659Z,26.05
2022-09-02T14:42:57.508Z,26.23
2022-09-02T14:45:31.576Z,26.07
2022-09-02T14:48:02.093Z,25.90
2022-09-02T14:50:36.657Z,25.63
2022-09-02T14:53:08.163Z,25.81
2022-09-02T14:55:54.539Z,26.06
2022-09-02T14:58:27.197Z,26.19
2022-09-02T15:00:59.452Z,26.15
2022-09-02T15:03:26.643Z,25.92
2022-09-02T15:05:53.739Z,25.81
2022-09-02T15:08:20.489Z,25.90
2022-09-02T15:10:47.241Z,26.18
2022-09-02T15:13:27.213Z,25.98
2022-09-02T15:15:55.422Z,26.04
2022-09-02T15:18:23.130Z,26.12
2022-09-02T15:20:49.679Z,25.94
2022-09-02T15:23:16.828Z,25.88
2022-09-02T15:25:43.352Z,25.76
2022-09-02T15:28:11.129Z,25.86
2022-09-02T15:30:37.665Z,25.82
2022-09-02T15:33:05.391Z,25.58
2022-09-02T15:35:33.889Z,25.62
2022-09-02T15:38:02.043Z,25.74
2022-09-02T15:40:29.665Z,25.50
2022-09-02T15:42:57.441Z,25.57
2022-09-02T15:45:23.960Z,25.66
2022-09-02T15:47:50.500Z,25.40
2022-09-02T15:50:17.040Z,25.45
2022-09-02T15:52:47.281Z,25.61
2022-09-02T15:55:13.772Z,25.69
2022-09-02T15:57:41.200Z,25.68
2022-09-02T16:00:09.595Z,25.56
2022-09-02T16:02:37.410Z,25.56
2022-09-02T16:05:04.187Z,25.53
2022-09-02T16:07:31.107Z,25.74
2022-09-02T16:10:01.342Z,25.69
2022-09-02T16:12:31.534Z,25.72
2022-09-02T16:14:57.987Z,25.68
2022-09-02T16:17:24.548Z,25.58
2022-09-02T16:19:51.026Z,25.50
2022-09-02T16:22:17.553Z,25.47
2022-09-02T16:24:44.271Z,25.29
2022-09-02T16:27:10.951Z,25.29
2022-09-02T16:29:37.733Z,25.41
2022-09-02T16:32:24.572Z,25.52
2022-09-02T16:34:53.281Z,25.53
2022-09-02T16:37:19.819Z,25.33
2022-09-02T16:39:46.420Z,25.22
2022-09-02T16:42:12.883Z,24.98
2022-09-02T16:44:41.423Z,24.97
2022-09-02T16:47:08.002Z,25.01
2022-09-02T16:49:34.938Z,25.08
2022-09-02T16:52:01.398Z,24.94
2022-09-02T16:54:33.575Z,24.70
2022-09-02T16:57:01.771Z,24.63
2022-09-02T16:59:28.631Z,24.58
2022-09-02T17:01:55.305Z,24.58
2022-09-02T17:04:22.086Z,24.58
2022-09-02T17:06:48.666Z,24.46
2022-09-02T17:09:16.311Z,24.27
2022-09-02T17:11:45.040Z,24.23
2022-09-02T17:14:16.091Z,24.14
2022-09-02T17:16:47.998Z,24.02
2022-09-02T17:19:20.700Z,23.90
2022-09-02T17:21:54.164Z,23.81
2022-09-02T17:24:23.720Z,23.68
2022-09-02T17:26:52.425Z,23.56
2022-09-02T17:29:47.462Z,23.43
2022-09-02T17:32:07.666Z,23.27
2022-09-02T17:34:34.624Z,23.03
2022-09-02T17:37:01.060Z,22.81
2022-09-02T17:39:27.830Z,22.57
2022-09-02T17:41:54.297Z,22.34
2022-09-02T17:44:22.914Z,22.19
2022-09-02T17:46:49.878Z,22.07
2022-09-02T17:49:17.724Z,21.94
2022-09-02T17:51:44.818Z,21.80
2022-09-02T17:54:12.833Z,21.59
2022-09-02T17:57:04.917Z,21.39
2022-09-02T17:59:47.534Z,21.17
2022-09-02T18:02:34.459Z,20.96
2022-09-02T18:05:12.698Z,20.81
2022-09-02T18:07:50.664Z,20.63
2022-09-02T18:10:17.559Z,20.47
2022-09-02T18:12:44.433Z,20.26
2022-09-02T18:15:16.049Z,20.14
2022-09-02T18:17:49.972Z,19.98
2022-09-02T18:20:43.615Z,19.77
2022-09-02T18:23:48.101Z,19.63
2022-09-02T18:26:17.717Z,19.46
2022-09-02T18:28:53.355Z,19.38
2022-09-02T18:31:35.103Z,19.16
2022-09-02T18:34:54.862Z,18.89
2022-09-02T18:37:39.690Z,18.64
2022-09-02T18:40:15.366Z,18.45
2022-09-02T18:43:05.169Z,18.27
2022-09-02T18:45:35.553Z,18.11
2022-09-02T18:48:09.206Z,18.03
2022-09-02T18:50:51.633Z,17.94
2022-09-02T18:53:22.798Z,17.76
2022-09-02T18:55:51.995Z,17.71
2022-09-02T18:58:36.381Z,17.63
2022-09-02T19:01:09.881Z,17.44
2022-09-02T19:03:37.466Z,17.27
2022-09-02T19:06:09.144Z,17.14
2022-09-02T19:08:38.114Z,17.06
2022-09-02T19:11:12.839Z,16.97
2022-09-02T19:13:46.662Z,16.90
2022-09-02T19:16:36.136Z,16.78
2022-09-02T19:19:04.296Z,16.69
2022-09-02T19:21:48.523Z,16.54
2022-09-02T19:24:21.300Z,16.48
2022-09-02T19:26:48.860Z,16.34
2022-09-02T19:29:16.909Z,16.29
2022-09-02T19:31:46.716Z,16.23
2022-09-02T19:34:14.133Z,16.18
2022-09-02T19:36:44.546Z,16.11
2022-09-02T19:39:11.102Z,16.08
2022-09-02T19:41:37.919Z,16.02
2022-09-02T19:44:04.381Z,15.93
2022-09-02T19:49:17.417Z,15.74
2022-09-02T19:51:44.353Z,15.72
2022-09-02T19:54:13.717Z,15.67
2022-09-02T19:56:41.035Z,15.62
2022-09-02T19:59:07.702Z,15.56
2022-09-02T20:01:35.297Z,15.46
2022-09-02T20:04:01.813Z,15.37
2022-09-02T20:06:28.342Z,15.38
2022-09-02T20:08:54.914Z,15.30
2022-09-02T20:11:21.468Z,15.32
2022-09-02T20:13:49.228Z,15.25
2022-09-02T20:16:20.327Z,15.24
2022-09-02T20:18:48.701Z,15.25
2022-09-02T20:21:42.236Z,15.26
2022-09-02T20:24:10.535Z,15.26
2022-09-02T20:26:49.789Z,15.24
2022-09-02T20:29:49.923Z,15.20
2022-09-02T20:32:25.549Z,15.23
2022-09-02T20:35:01.260Z,15.25
2022-09-02T20:37:50.160Z,15.35
2022-09-02T20:40:58.888Z,15.56
2022-09-02T20:43:50.796Z,15.52
2022-09-02T20:46:40.689Z,15.54
2022-09-02T20:49:32.155Z,15.61
2022-09-02T20:52:06.244Z,15.61
2022-09-02T20:54:44.700Z,15.62
2022-09-02T20:57:35.172Z,15.63
2022-09-02T21:00:09.254Z,15.57
2022-09-02T21:02:45.553Z,15.54
2022-09-02T21:05:22.214Z,15.50
2022-09-02T21:07:59.683Z,15.47
2022-09-02T21:10:33.091Z,15.42
2022-09-02T21:13:10.261Z,15.38
2022-09-02T21:15:55.989Z,15.36
2022-09-02T21:18:41.612Z,15.46
2022-09-02T21:21:26.752Z,15.44
2022-09-02T21:24:02.825Z,15.47
2022-09-02T21:26:32.949Z,15.41
2022-09-02T21:29:06.799Z,15.38
2022-09-02T21:31:35.426Z,15.37
2022-09-02T21:34:11.217Z,15.33
2022-09-02T21:36:38.681Z,15.40
2022-09-02T21:39:12.856Z,15.38
2022-09-02T21:41:59.665Z,15.29
2022-09-02T21:44:41.297Z,15.22
2022-09-02T21:47:31.472Z,15.19
2022-09-02T21:50:10.065Z,15.14
2022-09-02T21:52:49.555Z,15.11
2022-09-02T21:55:53.372Z,15.16
2022-09-02T21:58:44.628Z,15.18
2022-09-02T22:01:21.832Z,15.17
2022-09-02T22:04:03.924Z,15.14
2022-09-02T22:06:57.953Z,15.05
2022-09-02T22:09:30.242Z,15.04
2022-09-02T22:12:11.219Z,15.03
2022-09-02T22:14:59.012Z,14.99
2022-09-02T22:18:19.879Z,14.87
2022-09-02T22:20:50.824Z,14.82
2022-09-02T22:23:26.502Z,14.75
2022-09-02T22:26:15.383Z,14.72
2022-09-02T22:28:50.365Z,14.64
2022-09-02T22:31:21.433Z,14.60
2022-09-02T22:33:55.649Z,14.62
2022-09-02T22:36:25.270Z,14.66
2022-09-02T22:38:53.271Z,14.69
2022-09-02T22:41:28.747Z,14.74
2022-09-02T22:44:02.157Z,14.72
2022-09-02T22:47:07.961Z,14.70
2022-09-02T22:49:59.320Z,14.65
2022-09-02T22:52:47.293Z,14.68
2022-09-02T22:55:33.458Z,14.70
2022-09-02T22:58:28.898Z,14.67
2022-09-02T23:01:08.995Z,14.67
2022-09-02T23:03:41.620Z,14.61
2022-09-02T23:06:20.562Z,14.68
2022-09-02T23:08:48.154Z,14.84
2022-09-02T23:11:53.885Z,14.98
2022-09-02T23:14:26.540Z,14.94
2022-09-02T23:17:03.622Z,14.87
2022-09-02T23:19:56.438Z,14.79
2022-09-02T23:22:46.443Z,14.74
2022-09-02T23:25:36.776Z,14.73
2022-09-02T23:28:16.677Z,14.75
2022-09-02T23:31:03.895Z,14.76
2022-09-02T23:33:52.408Z,14.74
2022-09-02T23:36:47.253Z,14.81
2022-09-02T23:39:34.085Z,14.77
2022-09-02T23:42:00.724Z,14.69
2022-09-02T23:44:29.470Z,14.63
2022-09-02T23:46:59.842Z,14.66
2022-09-02T23:49:50.048Z,14.61
2022-09-02T23:52:45.995Z,14.62
2022-09-02T23:55:32.807Z,14.65
2022-09-02T23:58:02.167Z,14.56
